sensor_id;sensor_type;location;lat;lon;timestamp;temperature;humidity
21646;DHT22;10984;45.712;4.800;2023-09-19T00:00:56;19.90;99.90
21646;DHT22;10984;45.712;4.800;2023-09-19T00:03:21;19.80;99.90
21646;DHT22;10984;45.712;4.800;2023-09-19T00:05:48;19.90;99.90
21646;DHT22;10984;45.712;4.800;2023-09-19T00:08:15;19.90;99.90
21646;DHT22;10984;45.712;4.800;2023-09-19T00:10:42;19.90;99.90
21646;DHT22;10984;45.712;4.800;2023-09-19T00:13:08;19.80;99.90
21646;DHT22;10984;45.712;4.800;2023-09-19T00:15:40;19.90;99.90
21646;DHT22;10984;45.712;4.800;2023-09-19T00:18:07;19.80;99.90
21646;DHT22;10984;45.712;4.800;2023-09-19T00:20:35;19.80;99.90
21646;DHT22;10984;45.712;4.800;2023-09-19T00:23:01;19.80;99.90
21646;DHT22;10984;45.712;4.800;2023-09-19T00:25:29;19.80;99.90
21646;DHT22;10984;45.712;4.800;2023-09-19T00:27:55;19.80;99.90
21646;DHT22;10984;45.712;4.800;2023-09-19T00:30:21;19.80;99.90
21646;DHT22;10984;45.712;4.800;2023-09-19T00:32:47;19.70;99.90
21646;DHT22;10984;45.712;4.800;2023-09-19T00:35:14;19.70;99.90
21646;DHT22;10984;45.712;4.800;2023-09-19T00:37:41;19.60;99.90
21646;DHT22;10984;45.712;4.800;2023-09-19T00:40:07;19.60;99.90
21646;DHT22;10984;45.712;4.800;2023-09-19T00:42:38;19.60;99.90
21646;DHT22;10984;45.712;4.800;2023-09-19T00:45:05;19.60;99.90
21646;DHT22;10984;45.712;4.800;2023-09-19T00:47:31;19.70;99.90
21646;DHT22;10984;45.712;4.800;2023-09-19T00:49:57;19.70;99.90
21646;DHT22;10984;45.712;4.800;2023-09-19T00:52:22;19.70;99.90
21646;DHT22;10984;45.712;4.800;2023-09-19T00:54:49;19.70;99.90
21646;DHT22;10984;45.712;4.800;2023-09-19T00:57:15;19.70;99.90
21646;DHT22;10984;45.712;4.800;2023-09-19T00:59:41;19.70;99.90
21646;DHT22;10984;45.712;4.800;2023-09-19T01:02:08;19.70;99.90
21646;DHT22;10984;45.712;4.800;2023-09-19T01:04:34;19.70;99.90
21646;DHT22;10984;45.712;4.800;2023-09-19T01:06:59;19.70;99.90
21646;DHT22;10984;45.712;4.800;2023-09-19T01:09:25;19.70;99.90
21646;DHT22;10984;45.712;4.800;2023-09-19T01:11:56;19.70;99.90
21646;DHT22;10984;45.712;4.800;2023-09-19T01:17:34;19.60;99.90
21646;DHT22;10984;45.712;4.800;2023-09-19T01:26:11;19.70;99.90
21646;DHT22;10984;45.712;4.800;2023-09-19T01:31:51;19.60;99.90
21646;DHT22;10984;45.712;4.800;2023-09-19T01:34:19;19.50;99.90
21646;DHT22;10984;45.712;4.800;2023-09-19T01:36:46;19.40;99.90
21646;DHT22;10984;45.712;4.800;2023-09-19T01:39:12;19.30;99.90
21646;DHT22;10984;45.712;4.800;2023-09-19T01:51:09;18.90;99.90
21646;DHT22;10984;45.712;4.800;2023-09-19T01:56:51;19.00;99.90
21646;DHT22;10984;45.712;4.800;2023-09-19T01:59:23;18.90;99.90
21646;DHT22;10984;45.712;4.800;2023-09-19T02:01:51;18.90;99.90
21646;DHT22;10984;45.712;4.800;2023-09-19T02:04:17;18.80;99.90
21646;DHT22;10984;45.712;4.800;2023-09-19T02:06:43;18.80;99.90
21646;DHT22;10984;45.712;4.800;2023-09-19T02:09:08;18.70;99.90
21646;DHT22;10984;45.712;4.800;2023-09-19T02:11:35;18.70;99.90
21646;DHT22;10984;45.712;4.800;2023-09-19T02:14:01;18.60;99.90
21646;DHT22;10984;45.712;4.800;2023-09-19T02:16:27;18.60;99.90
21646;DHT22;10984;45.712;4.800;2023-09-19T02:18:54;18.60;99.90
21646;DHT22;10984;45.712;4.800;2023-09-19T02:21:19;18.60;99.90
21646;DHT22;10984;45.712;4.800;2023-09-19T02:23:47;18.70;99.90
21646;DHT22;10984;45.712;4.800;2023-09-19T02:26:13;18.70;99.90
21646;DHT22;10984;45.712;4.800;2023-09-19T02:28:39;18.70;99.90
21646;DHT22;10984;45.712;4.800;2023-09-19T02:31:05;18.70;99.90
21646;DHT22;10984;45.712;4.800;2023-09-19T02:33:31;18.70;99.90
21646;DHT22;10984;45.712;4.800;2023-09-19T02:36:15;18.80;99.90
21646;DHT22;10984;45.712;4.800;2023-09-19T02:38:42;18.80;99.90
21646;DHT22;10984;45.712;4.800;2023-09-19T02:41:08;18.80;99.90
21646;DHT22;10984;45.712;4.800;2023-09-19T02:43:34;18.80;99.90
21646;DHT22;10984;45.712;4.800;2023-09-19T02:45:59;18.80;99.90
21646;DHT22;10984;45.712;4.800;2023-09-19T02:48:25;18.80;99.90
21646;DHT22;10984;45.712;4.800;2023-09-19T02:50:51;18.80;99.90
21646;DHT22;10984;45.712;4.800;2023-09-19T02:53:17;18.80;99.90
21646;DHT22;10984;45.712;4.800;2023-09-19T02:55:44;18.80;99.90
21646;DHT22;10984;45.712;4.800;2023-09-19T02:58:10;18.90;99.90
21646;DHT22;10984;45.712;4.800;2023-09-19T03:00:54;18.90;99.90
21646;DHT22;10984;45.712;4.800;2023-09-19T03:03:20;18.80;99.90
21646;DHT22;10984;45.712;4.800;2023-09-19T03:05:46;18.80;99.90
21646;DHT22;10984;45.712;4.800;2023-09-19T03:08:31;18.80;99.90
21646;DHT22;10984;45.712;4.800;2023-09-19T03:11:03;18.80;99.90
21646;DHT22;10984;45.712;4.800;2023-09-19T03:13:31;18.90;99.90
21646;DHT22;10984;45.712;4.800;2023-09-19T03:15:57;18.90;99.90
21646;DHT22;10984;45.712;4.800;2023-09-19T03:18:26;18.90;99.90
21646;DHT22;10984;45.712;4.800;2023-09-19T03:21:10;18.90;99.90
21646;DHT22;10984;45.712;4.800;2023-09-19T03:23:36;18.90;99.90
21646;DHT22;10984;45.712;4.800;2023-09-19T03:26:04;18.80;99.90
21646;DHT22;10984;45.712;4.800;2023-09-19T03:28:33;18.80;99.90
21646;DHT22;10984;45.712;4.800;2023-09-19T03:31:18;18.80;99.90
21646;DHT22;10984;45.712;4.800;2023-09-19T03:33:43;18.80;99.90
21646;DHT22;10984;45.712;4.800;2023-09-19T03:36:09;18.80;99.90
21646;DHT22;10984;45.712;4.800;2023-09-19T03:38:35;18.80;99.90
21646;DHT22;10984;45.712;4.800;2023-09-19T03:41:02;18.70;99.90
21646;DHT22;10984;45.712;4.800;2023-09-19T03:43:27;18.70;99.90
21646;DHT22;10984;45.712;4.800;2023-09-19T03:45:54;18.70;99.90
21646;DHT22;10984;45.712;4.800;2023-09-19T03:48:38;18.70;99.90
21646;DHT22;10984;45.712;4.800;2023-09-19T03:51:03;18.70;99.90
21646;DHT22;10984;45.712;4.800;2023-09-19T03:53:30;18.70;99.90
21646;DHT22;10984;45.712;4.800;2023-09-19T03:55:55;18.70;99.90
21646;DHT22;10984;45.712;4.800;2023-09-19T03:58:21;18.70;99.90
21646;DHT22;10984;45.712;4.800;2023-09-19T04:00:46;18.70;99.90
21646;DHT22;10984;45.712;4.800;2023-09-19T04:03:13;18.80;99.90
21646;DHT22;10984;45.712;4.800;2023-09-19T04:05:45;18.80;99.90
21646;DHT22;10984;45.712;4.800;2023-09-19T04:08:11;18.80;99.90
21646;DHT22;10984;45.712;4.800;2023-09-19T04:10:37;18.80;99.90
21646;DHT22;10984;45.712;4.800;2023-09-19T04:13:03;18.80;99.90
21646;DHT22;10984;45.712;4.800;2023-09-19T04:15:29;18.80;99.90
21646;DHT22;10984;45.712;4.800;2023-09-19T04:17:55;18.80;99.90
21646;DHT22;10984;45.712;4.800;2023-09-19T04:20:21;18.80;99.90
21646;DHT22;10984;45.712;4.800;2023-09-19T04:22:48;18.90;99.90
21646;DHT22;10984;45.712;4.800;2023-09-19T04:25:15;18.90;99.90
21646;DHT22;10984;45.712;4.800;2023-09-19T04:27:40;18.90;99.90
21646;DHT22;10984;45.712;4.800;2023-09-19T04:30:08;18.90;99.90
21646;DHT22;10984;45.712;4.800;2023-09-19T04:32:52;18.90;99.90
21646;DHT22;10984;45.712;4.800;2023-09-19T04:35:18;18.90;99.90
21646;DHT22;10984;45.712;4.800;2023-09-19T04:37:44;18.80;99.90
21646;DHT22;10984;45.712;4.800;2023-09-19T04:40:10;18.90;99.90
21646;DHT22;10984;45.712;4.800;2023-09-19T04:42:41;18.80;99.90
21646;DHT22;10984;45.712;4.800;2023-09-19T04:45:07;18.80;99.90
21646;DHT22;10984;45.712;4.800;2023-09-19T04:47:35;18.80;99.90
21646;DHT22;10984;45.712;4.800;2023-09-19T04:50:01;18.80;99.90
21646;DHT22;10984;45.712;4.800;2023-09-19T04:52:27;18.80;99.90
21646;DHT22;10984;45.712;4.800;2023-09-19T04:54:56;18.80;99.90
21646;DHT22;10984;45.712;4.800;2023-09-19T04:57:22;18.80;99.90
21646;DHT22;10984;45.712;4.800;2023-09-19T04:59:48;18.80;99.90
21646;DHT22;10984;45.712;4.800;2023-09-19T05:02:14;18.80;99.90
21646;DHT22;10984;45.712;4.800;2023-09-19T05:04:40;18.80;99.90
21646;DHT22;10984;45.712;4.800;2023-09-19T05:07:05;18.80;99.90
21646;DHT22;10984;45.712;4.800;2023-09-19T05:09:31;18.80;99.90
21646;DHT22;10984;45.712;4.800;2023-09-19T05:12:00;18.80;99.90
21646;DHT22;10984;45.712;4.800;2023-09-19T05:14:25;18.80;99.90
21646;DHT22;10984;45.712;4.800;2023-09-19T05:16:51;18.80;99.90
21646;DHT22;10984;45.712;4.800;2023-09-19T05:19:17;18.70;99.90
21646;DHT22;10984;45.712;4.800;2023-09-19T05:21:42;18.70;99.90
21646;DHT22;10984;45.712;4.800;2023-09-19T05:24:08;18.70;99.90
21646;DHT22;10984;45.712;4.800;2023-09-19T05:26:33;18.70;99.90
21646;DHT22;10984;45.712;4.800;2023-09-19T05:28:59;18.80;99.90
21646;DHT22;10984;45.712;4.800;2023-09-19T05:31:26;18.70;99.90
21646;DHT22;10984;45.712;4.800;2023-09-19T05:33:53;18.70;99.90
21646;DHT22;10984;45.712;4.800;2023-09-19T05:36:20;18.70;99.90
21646;DHT22;10984;45.712;4.800;2023-09-19T05:38:46;18.70;99.90
21646;DHT22;10984;45.712;4.800;2023-09-19T05:41:15;18.70;99.90
21646;DHT22;10984;45.712;4.800;2023-09-19T05:43:41;18.70;99.90
21646;DHT22;10984;45.712;4.800;2023-09-19T05:46:07;18.70;99.90
21646;DHT22;10984;45.712;4.800;2023-09-19T05:48:33;18.70;99.90
21646;DHT22;10984;45.712;4.800;2023-09-19T05:50:59;18.70;99.90
21646;DHT22;10984;45.712;4.800;2023-09-19T05:53:27;18.70;99.90
21646;DHT22;10984;45.712;4.800;2023-09-19T05:55:52;18.70;99.90
21646;DHT22;10984;45.712;4.800;2023-09-19T05:58:18;18.70;99.90
21646;DHT22;10984;45.712;4.800;2023-09-19T06:00:45;18.70;99.90
21646;DHT22;10984;45.712;4.800;2023-09-19T06:03:13;18.70;99.90
21646;DHT22;10984;45.712;4.800;2023-09-19T06:05:40;18.70;99.90
21646;DHT22;10984;45.712;4.800;2023-09-19T06:08:07;18.70;99.90
21646;DHT22;10984;45.712;4.800;2023-09-19T06:10:33;18.70;99.90
21646;DHT22;10984;45.712;4.800;2023-09-19T06:13:01;18.70;99.90
21646;DHT22;10984;45.712;4.800;2023-09-19T06:15:30;18.80;99.90
21646;DHT22;10984;45.712;4.800;2023-09-19T06:17:58;18.80;99.90
21646;DHT22;10984;45.712;4.800;2023-09-19T06:20:25;18.90;99.90
21646;DHT22;10984;45.712;4.800;2023-09-19T06:22:52;18.90;99.90
21646;DHT22;10984;45.712;4.800;2023-09-19T06:25:18;19.00;99.90
21646;DHT22;10984;45.712;4.800;2023-09-19T06:28:02;19.00;99.90
21646;DHT22;10984;45.712;4.800;2023-09-19T06:30:31;19.10;99.90
21646;DHT22;10984;45.712;4.800;2023-09-19T06:32:58;19.10;99.90
21646;DHT22;10984;45.712;4.800;2023-09-19T06:35:25;19.10;99.90
21646;DHT22;10984;45.712;4.800;2023-09-19T06:37:51;19.20;99.90
21646;DHT22;10984;45.712;4.800;2023-09-19T06:40:18;19.30;99.90
21646;DHT22;10984;45.712;4.800;2023-09-19T06:42:46;19.40;99.90
21646;DHT22;10984;45.712;4.800;2023-09-19T06:45:14;19.30;99.90
21646;DHT22;10984;45.712;4.800;2023-09-19T06:47:58;19.40;99.90
21646;DHT22;10984;45.712;4.800;2023-09-19T06:50:26;19.50;99.90
21646;DHT22;10984;45.712;4.800;2023-09-19T06:52:54;19.60;99.90
21646;DHT22;10984;45.712;4.800;2023-09-19T06:55:21;19.70;99.90
21646;DHT22;10984;45.712;4.800;2023-09-19T06:57:49;19.80;99.90
21646;DHT22;10984;45.712;4.800;2023-09-19T07:00:16;19.90;99.90
21646;DHT22;10984;45.712;4.800;2023-09-19T07:03:06;19.90;81.50
21646;DHT22;10984;45.712;4.800;2023-09-19T07:05:51;19.90;99.90
21646;DHT22;10984;45.712;4.800;2023-09-19T07:08:16;19.90;99.90
21646;DHT22;10984;45.712;4.800;2023-09-19T07:10:43;20.00;99.90
21646;DHT22;10984;45.712;4.800;2023-09-19T07:13:27;20.10;99.90
21646;DHT22;10984;45.712;4.800;2023-09-19T07:15:53;20.30;99.90
21646;DHT22;10984;45.712;4.800;2023-09-19T07:18:19;20.30;87.40
21646;DHT22;10984;45.712;4.800;2023-09-19T07:20:45;20.50;81.20
21646;DHT22;10984;45.712;4.800;2023-09-19T07:23:30;20.50;14.80
21646;DHT22;10984;45.712;4.800;2023-09-19T07:26:00;20.50;56.40
21646;DHT22;10984;45.712;4.800;2023-09-19T07:28:26;20.60;1.00
21646;DHT22;10984;45.712;4.800;2023-09-19T07:30:53;20.60;1.00
21646;DHT22;10984;45.712;4.800;2023-09-19T07:33:19;20.70;1.00
21646;DHT22;10984;45.712;4.800;2023-09-19T07:35:46;20.80;1.00
21646;DHT22;10984;45.712;4.800;2023-09-19T07:38:12;20.90;1.00
21646;DHT22;10984;45.712;4.800;2023-09-19T07:40:38;21.00;1.00
21646;DHT22;10984;45.712;4.800;2023-09-19T07:43:04;21.00;1.00
21646;DHT22;10984;45.712;4.800;2023-09-19T07:45:30;21.00;1.00
21646;DHT22;10984;45.712;4.800;2023-09-19T07:47:57;21.10;1.00
21646;DHT22;10984;45.712;4.800;2023-09-19T07:50:22;21.10;1.00
21646;DHT22;10984;45.712;4.800;2023-09-19T07:52:49;21.10;1.00
21646;DHT22;10984;45.712;4.800;2023-09-19T07:55:16;21.10;1.00
21646;DHT22;10984;45.712;4.800;2023-09-19T07:57:43;21.00;1.00
21646;DHT22;10984;45.712;4.800;2023-09-19T08:00:10;21.10;1.00
21646;DHT22;10984;45.712;4.800;2023-09-19T08:02:54;21.20;1.00
21646;DHT22;10984;45.712;4.800;2023-09-19T08:05:19;21.20;1.00
21646;DHT22;10984;45.712;4.800;2023-09-19T08:07:46;21.20;1.00
21646;DHT22;10984;45.712;4.800;2023-09-19T08:10:30;21.20;1.00
21646;DHT22;10984;45.712;4.800;2023-09-19T08:13:00;21.20;1.00
21646;DHT22;10984;45.712;4.800;2023-09-19T08:15:28;21.20;1.00
21646;DHT22;10984;45.712;4.800;2023-09-19T08:17:54;21.10;1.00
21646;DHT22;10984;45.712;4.800;2023-09-19T08:20:20;21.20;1.00
21646;DHT22;10984;45.712;4.800;2023-09-19T08:23:04;21.30;1.00
21646;DHT22;10984;45.712;4.800;2023-09-19T08:25:31;21.40;1.00
21646;DHT22;10984;45.712;4.800;2023-09-19T08:27:56;21.40;1.00
21646;DHT22;10984;45.712;4.800;2023-09-19T08:30:25;21.40;1.00
21646;DHT22;10984;45.712;4.800;2023-09-19T08:33:11;21.40;1.00
21646;DHT22;10984;45.712;4.800;2023-09-19T08:35:37;21.30;1.00
21646;DHT22;10984;45.712;4.800;2023-09-19T08:38:05;21.40;1.00
21646;DHT22;10984;45.712;4.800;2023-09-19T08:40:32;21.40;1.00
21646;DHT22;10984;45.712;4.800;2023-09-19T08:42:59;21.50;1.00
21646;DHT22;10984;45.712;4.800;2023-09-19T08:45:26;21.60;1.00
21646;DHT22;10984;45.712;4.800;2023-09-19T08:51:02;21.70;1.00
21646;DHT22;10984;45.712;4.800;2023-09-19T08:56:33;21.90;1.00
21646;DHT22;10984;45.712;4.800;2023-09-19T08:59:17;21.90;1.00
21646;DHT22;10984;45.712;4.800;2023-09-19T09:01:49;21.80;1.00
21646;DHT22;10984;45.712;4.800;2023-09-19T09:04:19;21.80;1.00
21646;DHT22;10984;45.712;4.800;2023-09-19T09:06:46;21.90;1.00
21646;DHT22;10984;45.712;4.800;2023-09-19T09:09:15;21.90;1.00
21646;DHT22;10984;45.712;4.800;2023-09-19T09:11:41;22.00;1.00
21646;DHT22;10984;45.712;4.800;2023-09-19T09:14:25;22.00;1.00
21646;DHT22;10984;45.712;4.800;2023-09-19T09:16:51;22.10;1.00
21646;DHT22;10984;45.712;4.800;2023-09-19T09:19:17;22.10;1.00
21646;DHT22;10984;45.712;4.800;2023-09-19T09:21:50;22.00;1.00
21646;DHT22;10984;45.712;4.800;2023-09-19T09:24:34;22.10;1.00
21646;DHT22;10984;45.712;4.800;2023-09-19T09:27:04;22.00;1.00
21646;DHT22;10984;45.712;4.800;2023-09-19T09:29:49;22.10;1.00
21646;DHT22;10984;45.712;4.800;2023-09-19T09:32:34;22.10;1.00
21646;DHT22;10984;45.712;4.800;2023-09-19T09:35:06;22.10;1.00
21646;DHT22;10984;45.712;4.800;2023-09-19T09:37:35;22.00;1.00
21646;DHT22;10984;45.712;4.800;2023-09-19T09:40:04;22.00;1.00
21646;DHT22;10984;45.712;4.800;2023-09-19T09:42:49;22.10;1.00
21646;DHT22;10984;45.712;4.800;2023-09-19T09:45:24;22.00;1.00
21646;DHT22;10984;45.712;4.800;2023-09-19T09:48:08;22.10;1.00
21646;DHT22;10984;45.712;4.800;2023-09-19T09:51:02;22.30;1.00
21646;DHT22;10984;45.712;4.800;2023-09-19T09:53:29;22.30;1.00
21646;DHT22;10984;45.712;4.800;2023-09-19T09:55:59;22.40;99.90
21646;DHT22;10984;45.712;4.800;2023-09-19T09:58:25;22.40;99.90
21646;DHT22;10984;45.712;4.800;2023-09-19T10:00:55;22.30;99.90
21646;DHT22;10984;45.712;4.800;2023-09-19T10:03:34;22.20;99.90
21646;DHT22;10984;45.712;4.800;2023-09-19T10:06:05;22.20;99.90
21646;DHT22;10984;45.712;4.800;2023-09-19T10:12:20;22.10;99.90
21646;DHT22;10984;45.712;4.800;2023-09-19T10:14:47;22.00;99.90
21646;DHT22;10984;45.712;4.800;2023-09-19T10:17:17;22.10;99.90
21646;DHT22;10984;45.712;4.800;2023-09-19T10:22:46;22.10;99.90
21646;DHT22;10984;45.712;4.800;2023-09-19T10:25:32;22.20;99.90
21646;DHT22;10984;45.712;4.800;2023-09-19T10:28:00;22.20;99.90
21646;DHT22;10984;45.712;4.800;2023-09-19T10:30:32;22.30;99.90
21646;DHT22;10984;45.712;4.800;2023-09-19T10:33:03;22.40;99.90
21646;DHT22;10984;45.712;4.800;2023-09-19T10:35:29;22.40;99.90
21646;DHT22;10984;45.712;4.800;2023-09-19T10:37:59;22.50;99.90
21646;DHT22;10984;45.712;4.800;2023-09-19T10:40:27;22.70;99.90
21646;DHT22;10984;45.712;4.800;2023-09-19T10:43:05;22.70;99.90
21646;DHT22;10984;45.712;4.800;2023-09-19T10:45:50;22.70;99.90
21646;DHT22;10984;45.712;4.800;2023-09-19T10:48:18;22.70;99.90
21646;DHT22;10984;45.712;4.800;2023-09-19T10:56:33;22.70;99.90
21646;DHT22;10984;45.712;4.800;2023-09-19T10:59:21;22.80;99.90
21646;DHT22;10984;45.712;4.800;2023-09-19T11:02:15;22.80;55.10
21646;DHT22;10984;45.712;4.800;2023-09-19T11:04:42;23.00;82.20
21646;DHT22;10984;45.712;4.800;2023-09-19T11:09:56;23.10;99.90
21646;DHT22;10984;45.712;4.800;2023-09-19T11:12:59;23.10;1.00
21646;DHT22;10984;45.712;4.800;2023-09-19T11:16:04;23.20;1.00
21646;DHT22;10984;45.712;4.800;2023-09-19T11:27:23;23.40;1.00
21646;DHT22;10984;45.712;4.800;2023-09-19T11:44:40;23.40;1.00
21646;DHT22;10984;45.712;4.800;2023-09-19T11:47:07;23.50;1.00
21646;DHT22;10984;45.712;4.800;2023-09-19T11:49:34;23.50;1.00
21646;DHT22;10984;45.712;4.800;2023-09-19T11:52:04;23.50;1.00
21646;DHT22;10984;45.712;4.800;2023-09-19T11:54:55;23.50;1.00
21646;DHT22;10984;45.712;4.800;2023-09-19T11:57:22;23.50;1.00
21646;DHT22;10984;45.712;4.800;2023-09-19T11:59:48;23.40;1.00
21646;DHT22;10984;45.712;4.800;2023-09-19T12:02:32;23.50;1.00
21646;DHT22;10984;45.712;4.800;2023-09-19T12:05:03;23.50;1.00
21646;DHT22;10984;45.712;4.800;2023-09-19T12:07:29;23.50;1.00
21646;DHT22;10984;45.712;4.800;2023-09-19T12:10:14;23.50;1.00
21646;DHT22;10984;45.712;4.800;2023-09-19T12:13:02;23.40;1.00
21646;DHT22;10984;45.712;4.800;2023-09-19T12:15:28;23.30;1.00
21646;DHT22;10984;45.712;4.800;2023-09-19T12:18:00;23.20;1.00
21646;DHT22;10984;45.712;4.800;2023-09-19T12:23:24;23.20;1.00
21646;DHT22;10984;45.712;4.800;2023-09-19T12:25:52;23.30;1.00
21646;DHT22;10984;45.712;4.800;2023-09-19T12:28:20;23.40;1.00
21646;DHT22;10984;45.712;4.800;2023-09-19T12:30:48;23.50;1.00
21646;DHT22;10984;45.712;4.800;2023-09-19T12:33:32;23.70;1.00
21646;DHT22;10984;45.712;4.800;2023-09-19T12:35:59;23.80;1.00
21646;DHT22;10984;45.712;4.800;2023-09-19T12:38:25;23.90;1.00
21646;DHT22;10984;45.712;4.800;2023-09-19T12:40:57;24.00;1.00
21646;DHT22;10984;45.712;4.800;2023-09-19T12:43:27;24.00;1.00
21646;DHT22;10984;45.712;4.800;2023-09-19T12:45:53;24.00;1.00
21646;DHT22;10984;45.712;4.800;2023-09-19T12:48:20;24.00;1.00
21646;DHT22;10984;45.712;4.800;2023-09-19T12:53:57;24.10;1.00
21646;DHT22;10984;45.712;4.800;2023-09-19T12:56:23;24.30;1.00
21646;DHT22;10984;45.712;4.800;2023-09-19T12:59:08;24.30;1.00
21646;DHT22;10984;45.712;4.800;2023-09-19T13:04:23;24.50;99.90
21646;DHT22;10984;45.712;4.800;2023-09-19T13:07:07;24.60;99.90
21646;DHT22;10984;45.712;4.800;2023-09-19T13:09:34;24.60;99.90
21646;DHT22;10984;45.712;4.800;2023-09-19T13:12:00;24.60;99.90
21646;DHT22;10984;45.712;4.800;2023-09-19T13:14:29;24.50;99.90
21646;DHT22;10984;45.712;4.800;2023-09-19T13:17:14;24.60;83.10
21646;DHT22;10984;45.712;4.800;2023-09-19T13:19:58;24.70;90.80
21646;DHT22;10984;45.712;4.800;2023-09-19T13:22:43;24.70;40.50
21646;DHT22;10984;45.712;4.800;2023-09-19T13:25:29;24.80;14.50
21646;DHT22;10984;45.712;4.800;2023-09-19T13:27:57;24.80;95.60
21646;DHT22;10984;45.712;4.800;2023-09-19T13:30:25;24.80;1.00
21646;DHT22;10984;45.712;4.800;2023-09-19T13:32:51;24.80;1.00
21646;DHT22;10984;45.712;4.800;2023-09-19T13:35:18;24.80;1.00
21646;DHT22;10984;45.712;4.800;2023-09-19T13:37:45;24.70;1.00
21646;DHT22;10984;45.712;4.800;2023-09-19T13:40:17;24.70;1.00
21646;DHT22;10984;45.712;4.800;2023-09-19T13:42:43;24.70;1.00
21646;DHT22;10984;45.712;4.800;2023-09-19T13:45:09;24.70;1.00
21646;DHT22;10984;45.712;4.800;2023-09-19T13:47:53;24.60;1.00
21646;DHT22;10984;45.712;4.800;2023-09-19T13:50:19;24.50;1.00
21646;DHT22;10984;45.712;4.800;2023-09-19T13:52:50;24.30;1.00
21646;DHT22;10984;45.712;4.800;2023-09-19T13:55:17;24.30;1.00
21646;DHT22;10984;45.712;4.800;2023-09-19T13:57:46;24.30;1.00
21646;DHT22;10984;45.712;4.800;2023-09-19T14:00:15;24.30;1.00
21646;DHT22;10984;45.712;4.800;2023-09-19T14:02:41;24.20;1.00
21646;DHT22;10984;45.712;4.800;2023-09-19T14:05:12;24.30;1.00
21646;DHT22;10984;45.712;4.800;2023-09-19T14:07:42;24.40;1.00
21646;DHT22;10984;45.712;4.800;2023-09-19T14:10:09;24.50;1.00
21646;DHT22;10984;45.712;4.800;2023-09-19T14:12:36;24.40;1.00
21646;DHT22;10984;45.712;4.800;2023-09-19T14:15:04;24.50;1.00
21646;DHT22;10984;45.712;4.800;2023-09-19T14:17:29;24.50;1.00
21646;DHT22;10984;45.712;4.800;2023-09-19T14:19:55;24.60;1.00
21646;DHT22;10984;45.712;4.800;2023-09-19T14:22:20;24.60;1.00
21646;DHT22;10984;45.712;4.800;2023-09-19T14:24:47;24.60;1.00
21646;DHT22;10984;45.712;4.800;2023-09-19T14:27:13;24.50;1.00
21646;DHT22;10984;45.712;4.800;2023-09-19T14:29:38;24.50;99.90
21646;DHT22;10984;45.712;4.800;2023-09-19T14:32:05;24.50;99.90
21646;DHT22;10984;45.712;4.800;2023-09-19T14:34:31;24.50;99.90
21646;DHT22;10984;45.712;4.800;2023-09-19T14:36:57;24.60;99.90
21646;DHT22;10984;45.712;4.800;2023-09-19T14:39:22;24.60;99.90
21646;DHT22;10984;45.712;4.800;2023-09-19T14:41:49;24.60;99.90
21646;DHT22;10984;45.712;4.800;2023-09-19T14:44:15;24.40;99.90
21646;DHT22;10984;45.712;4.800;2023-09-19T14:46:43;24.40;99.90
21646;DHT22;10984;45.712;4.800;2023-09-19T14:49:27;24.40;1.00
21646;DHT22;10984;45.712;4.800;2023-09-19T14:51:53;24.40;1.00
21646;DHT22;10984;45.712;4.800;2023-09-19T14:54:18;24.30;1.00
21646;DHT22;10984;45.712;4.800;2023-09-19T14:56:44;24.20;1.00
21646;DHT22;10984;45.712;4.800;2023-09-19T14:59:10;24.10;1.00
21646;DHT22;10984;45.712;4.800;2023-09-19T15:01:36;24.00;99.90
21646;DHT22;10984;45.712;4.800;2023-09-19T15:04:03;24.00;99.90
21646;DHT22;10984;45.712;4.800;2023-09-19T15:06:29;24.00;1.00
21646;DHT22;10984;45.712;4.800;2023-09-19T15:08:55;24.00;99.90
21646;DHT22;10984;45.712;4.800;2023-09-19T15:11:20;23.90;1.00
21646;DHT22;10984;45.712;4.800;2023-09-19T15:13:47;23.80;1.00
21646;DHT22;10984;45.712;4.800;2023-09-19T15:16:14;23.80;1.00
21646;DHT22;10984;45.712;4.800;2023-09-19T15:18:58;23.80;1.00
21646;DHT22;10984;45.712;4.800;2023-09-19T15:21:24;23.80;1.00
21646;DHT22;10984;45.712;4.800;2023-09-19T15:23:49;23.80;1.00
21646;DHT22;10984;45.712;4.800;2023-09-19T15:26:15;23.80;99.90
21646;DHT22;10984;45.712;4.800;2023-09-19T15:28:59;23.90;1.00
21646;DHT22;10984;45.712;4.800;2023-09-19T15:31:25;23.90;99.90
21646;DHT22;10984;45.712;4.800;2023-09-19T15:33:51;23.90;1.00
21646;DHT22;10984;45.712;4.800;2023-09-19T15:36:17;23.90;99.90
21646;DHT22;10984;45.712;4.800;2023-09-19T15:39:03;23.90;56.70
21646;DHT22;10984;45.712;4.800;2023-09-19T15:41:32;24.00;1.00
21646;DHT22;10984;45.712;4.800;2023-09-19T15:43:59;23.90;1.00
21646;DHT22;10984;45.712;4.800;2023-09-19T15:46:26;23.90;1.00
21646;DHT22;10984;45.712;4.800;2023-09-19T15:48:53;23.90;1.00
21646;DHT22;10984;45.712;4.800;2023-09-19T15:51:19;23.80;1.00
21646;DHT22;10984;45.712;4.800;2023-09-19T15:53:46;23.80;99.90
21646;DHT22;10984;45.712;4.800;2023-09-19T15:56:33;23.80;99.90
21646;DHT22;10984;45.712;4.800;2023-09-19T15:59:18;23.80;99.90
21646;DHT22;10984;45.712;4.800;2023-09-19T16:01:44;23.70;99.90
21646;DHT22;10984;45.712;4.800;2023-09-19T16:04:10;23.70;1.00
21646;DHT22;10984;45.712;4.800;2023-09-19T16:06:38;23.70;1.00
21646;DHT22;10984;45.712;4.800;2023-09-19T16:09:04;23.60;1.00
21646;DHT22;10984;45.712;4.800;2023-09-19T16:11:49;23.50;1.00
21646;DHT22;10984;45.712;4.800;2023-09-19T16:14:15;23.50;1.00
21646;DHT22;10984;45.712;4.800;2023-09-19T16:16:41;23.40;99.90
21646;DHT22;10984;45.712;4.800;2023-09-19T16:19:06;23.40;1.00
21646;DHT22;10984;45.712;4.800;2023-09-19T16:21:37;23.40;1.00
21646;DHT22;10984;45.712;4.800;2023-09-19T16:24:03;23.40;52.00
21646;DHT22;10984;45.712;4.800;2023-09-19T16:26:29;23.40;99.90
21646;DHT22;10984;45.712;4.800;2023-09-19T16:28:57;23.30;48.60
21646;DHT22;10984;45.712;4.800;2023-09-19T16:31:27;23.20;99.90
21646;DHT22;10984;45.712;4.800;2023-09-19T16:33:53;23.20;1.00
21646;DHT22;10984;45.712;4.800;2023-09-19T16:36:20;23.10;1.00
21646;DHT22;10984;45.712;4.800;2023-09-19T16:38:48;23.00;99.90
21646;DHT22;10984;45.712;4.800;2023-09-19T16:41:14;22.90;1.00
21646;DHT22;10984;45.712;4.800;2023-09-19T16:43:40;22.90;47.10
21646;DHT22;10984;45.712;4.800;2023-09-19T16:46:08;22.80;1.00
21646;DHT22;10984;45.712;4.800;2023-09-19T16:48:36;22.80;1.00
21646;DHT22;10984;45.712;4.800;2023-09-19T16:51:04;22.70;1.00
21646;DHT22;10984;45.712;4.800;2023-09-19T16:53:31;22.60;99.90
21646;DHT22;10984;45.712;4.800;2023-09-19T16:56:15;22.50;1.00
21646;DHT22;10984;45.712;4.800;2023-09-19T16:58:46;22.40;99.90
21646;DHT22;10984;45.712;4.800;2023-09-19T17:01:13;22.40;99.90
21646;DHT22;10984;45.712;4.800;2023-09-19T17:03:41;22.30;32.60
21646;DHT22;10984;45.712;4.800;2023-09-19T17:08:51;22.20;14.50
21646;DHT22;10984;45.712;4.800;2023-09-19T17:11:18;22.10;99.90
21646;DHT22;10984;45.712;4.800;2023-09-19T17:13:45;21.90;1.00